Time;durP1;ratioP1;P1;durP2;ratioP2;P2;SDS_P1;SDS_P2;PMS_P1;PMS_P2;Temp;Humidity;BMP_temperature;BMP_pressure;BME280_temperature;BME280_humidity;BME280_pressure;Samples;Min_cycle;Max_cycle;Signal;HPM_P1;HPM_P2
2023/07/30 00:00:59;;;;;;;5.13;2.17;;;;;;;;;;5053526;28;20254;-71
2023/07/30 00:03:25;;;;;;;3.47;2.30;;;;;;;;;;5053764;28;20526;-72
2023/07/30 00:05:54;;;;;;;3.08;2.20;;;;;;;;;;5053522;28;20039;-71
2023/07/30 00:08:20;;;;;;;6.00;2.30;;;;;;;;;;5053457;28;20029;-70
2023/07/30 00:10:45;;;;;;;3.95;2.10;;;;;;;;;;5069053;28;20033;-71
2023/07/30 00:13:10;;;;;;;3.58;2.13;;;;;;;;;;5053647;28;20024;-71
2023/07/30 00:15:35;;;;;;;4.63;2.10;;;;;;;;;;5052717;28;20029;-71
2023/07/30 00:18:01;;;;;;;5.13;1.85;;;;;;;;;;5053368;28;20111;-72
2023/07/30 00:20:26;;;;;;;2.90;1.90;;;;;;;;;;5053123;28;20075;-71
2023/07/30 00:22:51;;;;;;;2.40;1.77;;;;;;;;;;5053468;28;20331;-70
2023/07/30 00:25:16;;;;;;;6.82;2.03;;;;;;;;;;5053257;28;20361;-72
2023/07/30 00:27:42;;;;;;;5.17;1.90;;;;;;;;;;5053461;28;20028;-72
2023/07/30 00:30:07;;;;;;;3.47;2.05;;;;;;;;;;5053262;28;20319;-70
2023/07/30 00:32:32;;;;;;;6.05;2.03;;;;;;;;;;5053073;28;20017;-71
2023/07/30 00:34:58;;;;;;;4.80;2.00;;;;;;;;;;5053607;28;20056;-71
2023/07/30 00:37:23;;;;;;;3.85;1.80;;;;;;;;;;5053161;28;20265;-72
2023/07/30 00:39:48;;;;;;;3.38;1.88;;;;;;;;;;5052896;28;20036;-71
2023/07/30 00:42:13;;;;;;;3.03;1.80;;;;;;;;;;5051811;28;20021;-70
2023/07/30 00:44:39;;;;;;;4.10;2.15;;;;;;;;;;5053237;28;20794;-72
2023/07/30 00:47:04;;;;;;;2.20;1.60;;;;;;;;;;5053333;28;20052;-72
2023/07/30 00:49:29;;;;;;;6.15;2.00;;;;;;;;;;5052872;28;20262;-71
2023/07/30 00:51:56;;;;;;;2.78;1.77;;;;;;;;;;5052868;28;20025;-72
2023/07/30 00:54:22;;;;;;;5.65;2.13;;;;;;;;;;5052837;28;20025;-71
2023/07/30 00:56:52;;;;;;;5.18;1.90;;;;;;;;;;5053445;28;20079;-72
2023/07/30 00:59:17;;;;;;;5.95;1.95;;;;;;;;;;5053077;28;20029;-72
2023/07/30 01:01:45;;;;;;;2.83;2.17;;;;;;;;;;5052768;28;20032;-70
2023/07/30 01:04:11;;;;;;;4.60;2.20;;;;;;;;;;5052718;28;20036;-70
2023/07/30 01:06:36;;;;;;;4.13;2.10;;;;;;;;;;5052829;28;20396;-71
2023/07/30 01:09:01;;;;;;;2.53;1.87;;;;;;;;;;5052776;28;20052;-70
2023/07/30 01:11:27;;;;;;;3.33;2.13;;;;;;;;;;5052778;28;20269;-71
2023/07/30 01:13:54;;;;;;;11.57;2.10;;;;;;;;;;5052785;28;20546;-71
2023/07/30 01:16:19;;;;;;;3.22;1.90;;;;;;;;;;5052829;28;20029;-71
2023/07/30 01:18:46;;;;;;;4.18;1.83;;;;;;;;;;5052557;28;20028;-72
2023/07/30 01:21:11;;;;;;;5.53;1.88;;;;;;;;;;5052566;28;20025;-71
2023/07/30 01:23:37;;;;;;;2.75;1.85;;;;;;;;;;5051304;28;20029;-71
2023/07/30 01:26:20;;;;;;;3.60;1.73;;;;;;;;;;5051342;28;20369;-71
2023/07/30 01:28:49;;;;;;;5.77;1.80;;;;;;;;;;5056390;28;20025;-71
2023/07/30 01:31:15;;;;;;;3.40;2.05;;;;;;;;;;5057023;28;20021;-71
2023/07/30 01:33:41;;;;;;;3.35;1.90;;;;;;;;;;5056718;28;20103;-71
2023/07/30 01:36:08;;;;;;;3.55;1.70;;;;;;;;;;5056390;28;20111;-71
2023/07/30 01:38:34;;;;;;;4.80;1.58;;;;;;;;;;5056348;28;20044;-71
2023/07/30 01:41:00;;;;;;;5.60;1.90;;;;;;;;;;5056476;28;20071;-71
2023/07/30 01:43:25;;;;;;;4.93;1.80;;;;;;;;;;5056442;28;20025;-71
2023/07/30 01:45:50;;;;;;;3.30;1.60;;;;;;;;;;5056379;28;20024;-71
2023/07/30 01:48:16;;;;;;;7.10;2.00;;;;;;;;;;5054929;28;20258;-71
2023/07/30 01:50:41;;;;;;;5.28;1.63;;;;;;;;;;5056097;28;20258;-70
2023/07/30 01:53:06;;;;;;;3.00;1.90;;;;;;;;;;5056018;28;20019;-70
2023/07/30 01:55:31;;;;;;;2.10;1.90;;;;;;;;;;5056197;28;20290;-70
2023/07/30 01:57:57;;;;;;;2.47;1.80;;;;;;;;;;5055901;28;20029;-70
2023/07/30 02:00:22;;;;;;;3.28;1.77;;;;;;;;;;5056091;28;20290;-72
2023/07/30 02:02:47;;;;;;;6.22;1.38;;;;;;;;;;5055776;28;20028;-72
2023/07/30 02:05:12;;;;;;;2.20;1.47;;;;;;;;;;5056118;28;20017;-72
2023/07/30 02:07:38;;;;;;;6.07;1.80;;;;;;;;;;5055772;28;20273;-72
2023/07/30 02:10:03;;;;;;;2.10;1.50;;;;;;;;;;5055696;28;20258;-71
2023/07/30 02:12:28;;;;;;;4.82;1.80;;;;;;;;;;5055718;28;20746;-72
2023/07/30 02:14:54;;;;;;;3.15;1.42;;;;;;;;;;5055607;28;20021;-72
2023/07/30 02:17:19;;;;;;;4.22;1.75;;;;;;;;;;5055584;28;20021;-71
2023/07/30 02:19:44;;;;;;;2.63;1.50;;;;;;;;;;5055583;28;20488;-71
2023/07/30 02:22:09;;;;;;;2.67;1.33;;;;;;;;;;5054127;28;20288;-70
2023/07/30 02:24:35;;;;;;;2.43;1.60;;;;;;;;;;5056025;28;20021;-71
2023/07/30 02:27:00;;;;;;;4.17;1.40;;;;;;;;;;5054135;28;20312;-71
2023/07/30 02:29:25;;;;;;;2.15;1.27;;;;;;;;;;5055505;28;20261;-71
2023/07/30 02:31:50;;;;;;;2.47;1.70;;;;;;;;;;5055261;28;20500;-72
2023/07/30 02:34:16;;;;;;;2.60;1.57;;;;;;;;;;5055283;28;20254;-71
2023/07/30 02:36:41;;;;;;;3.00;1.73;;;;;;;;;;5055482;28;20258;-71
2023/07/30 02:39:06;;;;;;;3.37;1.57;;;;;;;;;;5054109;28;20021;-70
2023/07/30 02:41:31;;;;;;;3.77;1.63;;;;;;;;;;5055011;28;20733;-71
2023/07/30 02:43:57;;;;;;;4.20;1.60;;;;;;;;;;5053750;28;20273;-71
2023/07/30 02:46:22;;;;;;;4.30;1.50;;;;;;;;;;5054207;28;20375;-71
2023/07/30 02:48:47;;;;;;;2.15;1.60;;;;;;;;;;5053727;28;20017;-71
2023/07/30 02:51:12;;;;;;;4.20;1.70;;;;;;;;;;5054912;28;20031;-71
2023/07/30 02:53:38;;;;;;;11.18;2.03;;;;;;;;;;5054909;28;20685;-72
2023/07/30 02:56:03;;;;;;;2.80;1.60;;;;;;;;;;5054962;28;20029;-71
2023/07/30 02:58:28;;;;;;;3.25;1.95;;;;;;;;;;5055052;28;20254;-71
2023/07/30 03:00:53;;;;;;;2.45;1.80;;;;;;;;;;5053446;28;20111;-70
2023/07/30 03:03:19;;;;;;;6.17;1.97;;;;;;;;;;5054924;28;20025;-70
2023/07/30 03:05:44;;;;;;;5.60;1.90;;;;;;;;;;5053423;28;20266;-70
2023/07/30 03:08:09;;;;;;;5.40;1.60;;;;;;;;;;5054674;28;20419;-71
2023/07/30 03:10:36;;;;;;;2.67;1.83;;;;;;;;;;5069925;28;20017;-70
2023/07/30 03:13:01;;;;;;;5.85;1.92;;;;;;;;;;5055152;28;20250;-72
2023/07/30 03:15:27;;;;;;;3.65;1.65;;;;;;;;;;5053151;28;20020;-72
2023/07/30 03:17:52;;;;;;;3.30;2.05;;;;;;;;;;5054450;28;20035;-71
2023/07/30 03:20:17;;;;;;;4.33;1.63;;;;;;;;;;5070013;28;20033;-70
2023/07/30 03:22:42;;;;;;;4.57;1.80;;;;;;;;;;5054265;28;20392;-72
2023/07/30 03:25:08;;;;;;;3.17;1.90;;;;;;;;;;5054330;28;20057;-72
2023/07/30 03:27:33;;;;;;;4.53;1.63;;;;;;;;;;5052984;28;20029;-72
2023/07/30 03:29:58;;;;;;;3.43;2.00;;;;;;;;;;5054157;28;20038;-72
2023/07/30 03:32:24;;;;;;;2.57;1.73;;;;;;;;;;5054215;28;20280;-72
2023/07/30 03:34:49;;;;;;;5.85;1.85;;;;;;;;;;5054415;28;20740;-72
2023/07/30 03:37:14;;;;;;;2.85;1.55;;;;;;;;;;5054105;28;20029;-71
2023/07/30 03:39:39;;;;;;;2.35;1.85;;;;;;;;;;5053981;28;20028;-72
2023/07/30 03:42:05;;;;;;;2.75;1.90;;;;;;;;;;5053851;28;20025;-72
2023/07/30 03:44:30;;;;;;;5.15;1.80;;;;;;;;;;5052743;28;20020;-71
2023/07/30 03:46:55;;;;;;;2.40;1.73;;;;;;;;;;5053886;28;20062;-71
2023/07/30 03:49:21;;;;;;;3.60;2.10;;;;;;;;;;5053808;28;20269;-71
2023/07/30 03:51:47;;;;;;;4.30;2.00;;;;;;;;;;5053816;28;20629;-72
2023/07/30 03:54:12;;;;;;;2.90;1.67;;;;;;;;;;5053913;28;20021;-70
2023/07/30 03:56:38;;;;;;;3.00;1.90;;;;;;;;;;5053660;28;20028;-71
2023/07/30 03:59:03;;;;;;;3.85;2.13;;;;;;;;;;5053693;28;20542;-71
2023/07/30 04:01:30;;;;;;;3.20;1.67;;;;;;;;;;5053516;28;20052;-72
2023/07/30 04:03:55;;;;;;;1.83;1.38;;;;;;;;;;5053785;28;20108;-72
2023/07/30 04:06:20;;;;;;;4.93;1.80;;;;;;;;;;5053588;28;20464;-70
2023/07/30 04:08:46;;;;;;;3.03;1.83;;;;;;;;;;5053454;28;20040;-70
2023/07/30 04:11:11;;;;;;;4.85;1.92;;;;;;;;;;5053706;28;20265;-72
2023/07/30 04:13:36;;;;;;;6.20;2.00;;;;;;;;;;5053461;28;20064;-72
2023/07/30 04:16:02;;;;;;;3.08;1.92;;;;;;;;;;5053736;28;20052;-72
2023/07/30 04:18:27;;;;;;;3.80;1.90;;;;;;;;;;5053324;28;20495;-72
2023/07/30 04:20:55;;;;;;;6.10;2.30;;;;;;;;;;5053434;28;20024;-72
2023/07/30 04:23:21;;;;;;;4.00;2.13;;;;;;;;;;5053221;28;20290;-72
2023/07/30 04:25:49;;;;;;;10.75;2.30;;;;;;;;;;5053205;28;20035;-72
2023/07/30 04:28:14;;;;;;;3.28;2.08;;;;;;;;;;5053225;28;20487;-72
2023/07/30 04:30:40;;;;;;;3.40;1.90;;;;;;;;;;5053071;28;20078;-72
2023/07/30 04:33:05;;;;;;;4.78;2.40;;;;;;;;;;5053177;28;20021;-72
2023/07/30 04:35:30;;;;;;;5.50;2.42;;;;;;;;;;5051899;28;20036;-72
2023/07/30 04:37:55;;;;;;;3.50;2.23;;;;;;;;;;5053360;28;20032;-71
2023/07/30 04:40:21;;;;;;;3.03;2.07;;;;;;;;;;5053229;28;20307;-72
2023/07/30 04:42:46;;;;;;;3.15;1.90;;;;;;;;;;5052921;28;20282;-70
2023/07/30 04:45:11;;;;;;;4.65;2.00;;;;;;;;;;5052968;28;20399;-71
2023/07/30 04:47:36;;;;;;;4.30;2.05;;;;;;;;;;5052916;28;20027;-72
2023/07/30 04:50:02;;;;;;;3.28;2.22;;;;;;;;;;5051642;28;20021;-71
2023/07/30 04:52:27;;;;;;;3.85;2.35;;;;;;;;;;5052898;28;20017;-72
2023/07/30 04:54:52;;;;;;;3.72;2.15;;;;;;;;;;5052852;28;20030;-71
2023/07/30 04:57:17;;;;;;;2.60;2.13;;;;;;;;;;5051845;28;20021;-72
2023/07/30 04:59:43;;;;;;;3.30;2.07;;;;;;;;;;5052981;28;20268;-72
2023/07/30 05:02:08;;;;;;;4.70;2.10;;;;;;;;;;5053603;28;20744;-71
2023/07/30 05:04:33;;;;;;;2.95;2.00;;;;;;;;;;5057500;28;20029;-72
2023/07/30 05:06:58;;;;;;;4.45;2.45;;;;;;;;;;5056954;28;20550;-72
2023/07/30 05:09:24;;;;;;;4.22;2.10;;;;;;;;;;5055516;28;20027;-72
2023/07/30 05:11:49;;;;;;;3.75;2.17;;;;;;;;;;5056894;28;20028;-72
2023/07/30 05:14:14;;;;;;;4.35;1.92;;;;;;;;;;5056964;28;20052;-73
2023/07/30 05:16:39;;;;;;;4.35;2.10;;;;;;;;;;5056854;28;20081;-72
2023/07/30 05:19:05;;;;;;;5.80;2.23;;;;;;;;;;5055630;28;20078;-71
2023/07/30 05:21:30;;;;;;;5.20;2.30;;;;;;;;;;5056533;28;20284;-70
2023/07/30 05:23:55;;;;;;;2.90;2.13;;;;;;;;;;5056591;28;20736;-71
2023/07/30 05:26:21;;;;;;;4.00;2.00;;;;;;;;;;5056583;28;20028;-72
2023/07/30 05:28:46;;;;;;;3.05;2.28;;;;;;;;;;5056560;28;20729;-71
2023/07/30 05:31:11;;;;;;;5.65;2.40;;;;;;;;;;5056412;28;20032;-72
2023/07/30 05:33:36;;;;;;;3.55;1.85;;;;;;;;;;5056405;28;20020;-71
2023/07/30 05:36:02;;;;;;;2.95;2.00;;;;;;;;;;5056671;28;20025;-73
2023/07/30 05:38:27;;;;;;;3.50;1.95;;;;;;;;;;5056327;28;20102;-72
2023/07/30 05:40:52;;;;;;;3.38;1.98;;;;;;;;;;5056214;28;20514;-71
2023/07/30 05:43:17;;;;;;;4.73;1.90;;;;;;;;;;5056172;28;20056;-70
2023/07/30 05:45:43;;;;;;;4.70;1.88;;;;;;;;;;5056127;28;20257;-72
2023/07/30 05:48:08;;;;;;;2.47;1.90;;;;;;;;;;5056720;28;20521;-70
2023/07/30 05:50:34;;;;;;;2.58;1.80;;;;;;;;;;5056152;28;20368;-70
2023/07/30 05:52:59;;;;;;;3.80;1.92;;;;;;;;;;5056132;28;20024;-71
2023/07/30 05:55:24;;;;;;;4.55;1.92;;;;;;;;;;5056333;28;20051;-72
2023/07/30 05:57:49;;;;;;;3.30;2.15;;;;;;;;;;5056254;28;20037;-71
2023/07/30 06:00:15;;;;;;;3.47;1.80;;;;;;;;;;5055868;28;20025;-71
2023/07/30 06:02:40;;;;;;;7.07;2.15;;;;;;;;;;5055775;28;20053;-71
2023/07/30 06:05:06;;;;;;;5.15;1.77;;;;;;;;;;5055334;28;20036;-71
2023/07/30 06:07:31;;;;;;;2.35;1.73;;;;;;;;;;5056094;28;20040;-70
2023/07/30 06:09:56;;;;;;;2.85;1.75;;;;;;;;;;5055643;28;20070;-70
2023/07/30 06:12:21;;;;;;;2.30;1.63;;;;;;;;;;5055958;28;20491;-71
2023/07/30 06:14:46;;;;;;;2.97;1.90;;;;;;;;;;5055581;28;20598;-71
2023/07/30 06:17:12;;;;;;;3.03;1.80;;;;;;;;;;5055577;28;20272;-72
2023/07/30 06:19:38;;;;;;;3.13;1.60;;;;;;;;;;5055423;28;20029;-71
2023/07/30 06:22:03;;;;;;;4.18;1.90;;;;;;;;;;5055365;28;20024;-71
2023/07/30 06:24:28;;;;;;;1.65;1.55;;;;;;;;;;5055741;28;20125;-71
2023/07/30 06:26:54;;;;;;;2.40;1.80;;;;;;;;;;5055421;28;20506;-72
2023/07/30 06:29:19;;;;;;;2.90;1.70;;;;;;;;;;5055271;28;20594;-70
2023/07/30 06:31:44;;;;;;;2.50;1.60;;;;;;;;;;5055367;28;20269;-70
2023/07/30 06:34:09;;;;;;;1.90;1.58;;;;;;;;;;5055215;28;20250;-71
2023/07/30 06:36:35;;;;;;;2.30;1.58;;;;;;;;;;5055260;28;20029;-73
2023/07/30 06:39:00;;;;;;;2.72;1.73;;;;;;;;;;5055141;28;20067;-71
2023/07/30 06:41:26;;;;;;;3.33;1.90;;;;;;;;;;5053802;28;20036;-71
2023/07/30 06:43:51;;;;;;;2.30;1.65;;;;;;;;;;5055110;28;20499;-72
2023/07/30 06:46:16;;;;;;;5.30;1.87;;;;;;;;;;5055002;28;20083;-72
2023/07/30 06:48:41;;;;;;;1.95;1.50;;;;;;;;;;5055034;28;20266;-71
2023/07/30 06:51:07;;;;;;;8.20;1.80;;;;;;;;;;5055464;28;20025;-71
2023/07/30 06:53:32;;;;;;;2.25;1.50;;;;;;;;;;5055419;28;20250;-71
2023/07/30 06:55:58;;;;;;;5.18;1.50;;;;;;;;;;5054880;28;20077;-71
2023/07/30 06:58:23;;;;;;;3.20;1.77;;;;;;;;;;5055054;28;20025;-71
2023/07/30 07:00:48;;;;;;;4.45;1.70;;;;;;;;;;5053444;28;20262;-72
2023/07/30 07:03:14;;;;;;;3.07;1.90;;;;;;;;;;5055203;28;20028;-72
2023/07/30 07:05:39;;;;;;;2.60;1.53;;;;;;;;;;5054803;28;20261;-71
2023/07/30 07:08:04;;;;;;;2.50;1.93;;;;;;;;;;5054687;28;20273;-71
2023/07/30 07:10:29;;;;;;;3.88;1.88;;;;;;;;;;5054580;28;20260;-71
2023/07/30 07:12:54;;;;;;;1.98;1.65;;;;;;;;;;5053584;28;20021;-71
2023/07/30 07:15:20;;;;;;;2.20;1.50;;;;;;;;;;5054784;28;20426;-71
2023/07/30 07:17:45;;;;;;;4.47;1.67;;;;;;;;;;5053207;28;20312;-71
2023/07/30 07:20:11;;;;;;;3.60;1.60;;;;;;;;;;5054208;28;20276;-72
2023/07/30 07:22:36;;;;;;;2.47;1.83;;;;;;;;;;5054294;28;20316;-72
2023/07/30 07:25:02;;;;;;;2.30;1.40;;;;;;;;;;5054001;28;20028;-71
2023/07/30 07:27:27;;;;;;;2.58;1.50;;;;;;;;;;5054265;28;20104;-72
2023/07/30 07:29:52;;;;;;;3.47;1.77;;;;;;;;;;5054176;28;20477;-72
2023/07/30 07:32:18;;;;;;;2.55;1.80;;;;;;;;;;5054261;28;20021;-71
2023/07/30 07:34:50;;;;;;;3.42;1.58;;;;;;;;;;5054125;28;20024;-71
2023/07/30 07:37:18;;;;;;;5.88;1.55;;;;;;;;;;5054389;28;20032;-71
2023/07/30 07:39:44;;;;;;;3.38;1.42;;;;;;;;;;5053970;28;20017;-72
2023/07/30 07:42:09;;;;;;;2.28;1.60;;;;;;;;;;5054175;28;20021;-71
2023/07/30 07:44:35;;;;;;;4.97;1.77;;;;;;;;;;5054281;28;20415;-71
2023/07/30 07:47:00;;;;;;;2.63;1.60;;;;;;;;;;5053951;28;20479;-70
2023/07/30 07:49:25;;;;;;;2.10;1.67;;;;;;;;;;5053766;28;20029;-71
2023/07/30 07:51:50;;;;;;;2.13;1.60;;;;;;;;;;5052543;28;20289;-71
2023/07/30 07:54:16;;;;;;;4.97;1.70;;;;;;;;;;5052546;28;20247;-71
2023/07/30 07:56:41;;;;;;;3.03;2.10;;;;;;;;;;5053794;28;20265;-71
2023/07/30 07:59:06;;;;;;;2.93;1.87;;;;;;;;;;5053702;28;20056;-71
2023/07/30 08:01:31;;;;;;;4.03;1.60;;;;;;;;;;5053541;28;20315;-72
2023/07/30 08:03:57;;;;;;;2.20;1.58;;;;;;;;;;5053498;28;20281;-72
2023/07/30 08:06:22;;;;;;;2.92;1.63;;;;;;;;;;5053500;28;20024;-71
2023/07/30 08:08:47;;;;;;;2.80;1.75;;;;;;;;;;5053410;28;20078;-71
2023/07/30 08:11:12;;;;;;;3.20;1.92;;;;;;;;;;5052036;28;20021;-72
2023/07/30 08:13:39;;;;;;;2.87;1.67;;;;;;;;;;5053631;28;20032;-72
2023/07/30 08:16:04;;;;;;;2.75;1.67;;;;;;;;;;5053546;28;20264;-72
2023/07/30 08:18:29;;;;;;;2.80;1.63;;;;;;;;;;5053372;28;20025;-72
2023/07/30 08:20:54;;;;;;;2.38;1.80;;;;;;;;;;5053116;28;20082;-70
2023/07/30 08:23:20;;;;;;;4.57;1.73;;;;;;;;;;5052367;28;20032;-72
2023/07/30 08:25:45;;;;;;;2.30;1.70;;;;;;;;;;5053212;28;20110;-71
2023/07/30 08:28:10;;;;;;;4.38;1.80;;;;;;;;;;5051861;28;20645;-71
2023/07/30 08:30:36;;;;;;;3.03;1.50;;;;;;;;;;5053068;28;20032;-71
2023/07/30 08:33:01;;;;;;;3.85;1.73;;;;;;;;;;5053106;28;20617;-70
2023/07/30 08:35:26;;;;;;;5.00;1.80;;;;;;;;;;5053303;28;20047;-70
2023/07/30 08:37:52;;;;;;;3.47;1.80;;;;;;;;;;5052208;28;20261;-71
2023/07/30 08:40:17;;;;;;;2.90;1.50;;;;;;;;;;5051587;28;20021;-71
2023/07/30 08:42:43;;;;;;;4.90;1.95;;;;;;;;;;5052932;28;20028;-72
2023/07/30 08:45:08;;;;;;;3.10;1.80;;;;;;;;;;5052912;28;20476;-72
2023/07/30 08:47:35;;;;;;;3.67;1.60;;;;;;;;;;5052938;28;20029;-72
2023/07/30 08:50:00;;;;;;;1.90;1.30;;;;;;;;;;5052811;28;20036;-71
2023/07/30 08:52:26;;;;;;;2.70;1.40;;;;;;;;;;5052977;28;20051;-71
2023/07/30 08:54:51;;;;;;;1.65;1.33;;;;;;;;;;5051615;28;20028;-71
2023/07/30 08:57:19;;;;;;;1.83;1.20;;;;;;;;;;5053079;28;20060;-71
2023/07/30 08:59:50;;;;;;;2.65;1.70;;;;;;;;;;5052488;28;20032;-71
2023/07/30 09:02:26;;;;;;;2.78;1.25;;;;;;;;;;5052603;28;20385;-72
2023/07/30 09:04:54;;;;;;;3.30;1.40;;;;;;;;;;5053026;28;20083;-72
2023/07/30 09:07:20;;;;;;;1.77;1.30;;;;;;;;;;5052628;28;20027;-71
2023/07/30 09:09:45;;;;;;;2.07;1.20;;;;;;;;;;5052992;28;20021;-71
2023/07/30 09:12:17;;;;;;;2.65;1.20;;;;;;;;;;5051463;28;20325;-72
2023/07/30 09:14:46;;;;;;;2.45;1.20;;;;;;;;;;5052919;28;20025;-72
2023/07/30 09:17:19;;;;;;;1.63;1.30;;;;;;;;;;5052614;28;20480;-73
2023/07/30 09:19:46;;;;;;;;;;;;;;;;;;5053317;28;20087;-72
2023/07/30 09:22:12;;;;;;;1.55;1.30;;;;;;;;;;5051248;28;19915;-71
2023/07/30 09:24:43;;;;;;;1.30;1.20;;;;;;;;;;5052898;28;20025;-71
2023/07/30 09:27:08;;;;;;;1.98;1.30;;;;;;;;;;5052483;28;20033;-71
2023/07/30 09:29:33;;;;;;;1.93;1.30;;;;;;;;;;5052340;28;20496;-71
2023/07/30 09:31:58;;;;;;;1.95;1.27;;;;;;;;;;5052513;28;20258;-71
2023/07/30 09:34:24;;;;;;;1.57;1.30;;;;;;;;;;5051307;28;20035;-71
2023/07/30 09:36:52;;;;;;;1.77;1.30;;;;;;;;;;5052758;28;20312;-71
2023/07/30 09:39:20;;;;;;;1.77;1.38;;;;;;;;;;5052342;28;20033;-70
2023/07/30 09:41:46;;;;;;;2.13;1.35;;;;;;;;;;5052355;28;20029;-72
2023/07/30 09:44:12;;;;;;;1.55;1.38;;;;;;;;;;5052227;28;20021;-72
2023/07/30 09:46:49;;;;;;;2.83;1.40;;;;;;;;;;5051101;28;20024;-72
2023/07/30 09:49:15;;;;;;;1.63;1.40;;;;;;;;;;5055045;28;20027;-72
2023/07/30 09:51:41;;;;;;;2.50;1.45;;;;;;;;;;5056335;28;20063;-72
2023/07/30 09:54:14;;;;;;;2.15;1.40;;;;;;;;;;5056011;28;20017;-72
2023/07/30 09:56:41;;;;;;;1.55;1.33;;;;;;;;;;5055985;28;20124;-72
2023/07/30 09:59:08;;;;;;;3.22;1.45;;;;;;;;;;5056252;28;20387;-72
2023/07/30 10:01:40;;;;;;;2.22;1.25;;;;;;;;;;5054503;28;20487;-72
2023/07/30 10:04:08;;;;;;;6.82;1.48;;;;;;;;;;5055838;28;20068;-73
2023/07/30 10:06:39;;;;;;;4.43;1.38;;;;;;;;;;5055821;28;20053;-72
2023/07/30 10:09:06;;;;;;;7.47;1.27;;;;;;;;;;5054930;28;20057;-72
2023/07/30 10:11:32;;;;;;;2.00;1.38;;;;;;;;;;5055710;28;20021;-72
2023/07/30 10:13:57;;;;;;;2.53;1.73;;;;;;;;;;5055972;28;20020;-72
2023/07/30 10:16:57;;;;;;;1.88;1.60;;;;;;;;;;5055586;28;20032;-71
2023/07/30 10:19:24;;;;;;;2.17;1.65;;;;;;;;;;5055323;28;20029;-71
2023/07/30 10:21:49;;;;;;;1.48;1.38;;;;;;;;;;5055476;28;20548;-72
2023/07/30 10:24:15;;;;;;;1.48;1.38;;;;;;;;;;5055425;28;20118;-72
2023/07/30 10:26:41;;;;;;;1.88;1.50;;;;;;;;;;5055392;28;20017;-72
2023/07/30 10:29:18;;;;;;;3.53;1.77;;;;;;;;;;5055570;28;20163;-73
2023/07/30 10:31:56;;;;;;;4.68;1.52;;;;;;;;;;5054088;28;20036;-71
2023/07/30 10:34:22;;;;;;;2.03;1.55;;;;;;;;;;5055556;28;20021;-71
2023/07/30 10:36:49;;;;;;;4.20;1.70;;;;;;;;;;5055222;28;20025;-72
2023/07/30 10:39:24;;;;;;;1.80;1.55;;;;;;;;;;5055366;28;20032;-73
2023/07/30 10:41:50;;;;;;;1.67;1.50;;;;;;;;;;5053917;28;20402;-72
2023/07/30 10:44:31;;;;;;;4.70;1.67;;;;;;;;;;5054863;28;20480;-72
2023/07/30 10:46:58;;;;;;;1.75;1.40;;;;;;;;;;5055119;28;20511;-72
2023/07/30 10:49:24;;;;;;;3.30;1.40;;;;;;;;;;5054925;28;20040;-73
2023/07/30 10:51:54;;;;;;;2.40;1.55;;;;;;;;;;5054808;28;20025;-72
2023/07/30 10:54:20;;;;;;;1.75;1.50;;;;;;;;;;5053547;28;20014;-71
2023/07/30 10:56:45;;;;;;;2.15;1.55;;;;;;;;;;5054888;28;20036;-71
2023/07/30 10:59:11;;;;;;;1.60;1.50;;;;;;;;;;5054471;28;20024;-73
2023/07/30 11:01:42;;;;;;;2.80;1.33;;;;;;;;;;5054163;28;20025;-71
2023/07/30 11:04:19;;;;;;;1.92;1.42;;;;;;;;;;5070080;28;20024;-72
2023/07/30 11:06:47;;;;;;;1.83;1.35;;;;;;;;;;5054694;28;20506;-71
2023/07/30 11:09:27;;;;;;;2.35;1.45;;;;;;;;;;5054746;28;20028;-72
2023/07/30 11:11:54;;;;;;;7.35;1.38;;;;;;;;;;5054572;28;20023;-72
2023/07/30 11:14:28;;;;;;;1.30;1.20;;;;;;;;;;5054505;28;20028;-73
2023/07/30 11:17:01;;;;;;;1.60;1.05;;;;;;;;;;5054684;28;20564;-72
2023/07/30 11:19:27;;;;;;;4.28;1.52;;;;;;;;;;5054289;28;20048;-73
2023/07/30 11:21:54;;;;;;;1.50;1.30;;;;;;;;;;5054582;28;20091;-72
2023/07/30 11:24:20;;;;;;;2.00;1.50;;;;;;;;;;5054374;28;20024;-72
2023/07/30 11:26:57;;;;;;;1.30;1.20;;;;;;;;;;5053070;28;20499;-72
2023/07/30 11:29:23;;;;;;;1.58;1.30;;;;;;;;;;5054834;28;20032;-71
2023/07/30 11:31:48;;;;;;;2.53;1.40;;;;;;;;;;5054179;28;20395;-72
2023/07/30 11:34:14;;;;;;;1.55;1.10;;;;;;;;;;5054224;28;20070;-73
2023/07/30 11:36:41;;;;;;;4.53;1.20;;;;;;;;;;5054136;28;20028;-71
2023/07/30 11:39:07;;;;;;;0.90;0.90;;;;;;;;;;5054041;28;20024;-73
2023/07/30 11:41:33;;;;;;;1.45;1.13;;;;;;;;;;5053934;28;20028;-71
2023/07/30 11:43:59;;;;;;;1.30;1.00;;;;;;;;;;5054117;28;20483;-71
2023/07/30 11:46:24;;;;;;;3.65;1.10;;;;;;;;;;5053884;28;20021;-71
2023/07/30 11:48:52;;;;;;;0.95;0.85;;;;;;;;;;5053926;28;20025;-71
2023/07/30 11:51:27;;;;;;;0.90;0.80;;;;;;;;;;5054052;28;20043;-71
2023/07/30 11:53:54;;;;;;;1.60;0.90;;;;;;;;;;5052544;28;20028;-73
2023/07/30 11:56:25;;;;;;;0.93;0.70;;;;;;;;;;5052439;28;20116;-73
2023/07/30 11:58:54;;;;;;;0.95;0.60;;;;;;;;;;5054027;28;20543;-71
2023/07/30 12:01:19;;;;;;;0.80;0.80;;;;;;;;;;5052259;28;20476;-70
2023/07/30 12:03:45;;;;;;;0.80;0.80;;;;;;;;;;5053702;28;20025;-73
2023/07/30 12:06:11;;;;;;;0.75;0.75;;;;;;;;;;5053501;28;20021;-72
2023/07/30 12:08:37;;;;;;;0.70;0.70;;;;;;;;;;5053495;28;20440;-73
2023/07/30 12:11:04;;;;;;;2.55;0.80;;;;;;;;;;5052007;28;20028;-73
2023/07/30 12:13:30;;;;;;;0.70;0.70;;;;;;;;;;5052181;28;20029;-71
2023/07/30 12:15:56;;;;;;;1.48;1.00;;;;;;;;;;5053747;28;20041;-73
2023/07/30 12:18:26;;;;;;;1.00;0.90;;;;;;;;;;5051933;28;20021;-73
2023/07/30 12:20:52;;;;;;;1.20;0.80;;;;;;;;;;5053089;28;20036;-72
2023/07/30 12:23:18;;;;;;;1.13;0.80;;;;;;;;;;5053138;28;20029;-72
2023/07/30 12:25:43;;;;;;;0.73;0.73;;;;;;;;;;5053332;28;20050;-72
2023/07/30 12:28:09;;;;;;;0.77;0.77;;;;;;;;;;5053180;28;20032;-72
2023/07/30 12:30:36;;;;;;;0.60;0.60;;;;;;;;;;5053049;28;20029;-72
2023/07/30 12:33:02;;;;;;;1.38;0.70;;;;;;;;;;5053104;28;20100;-72
2023/07/30 12:35:27;;;;;;;0.60;0.60;;;;;;;;;;5053681;28;20036;-73
2023/07/30 12:37:53;;;;;;;1.17;0.80;;;;;;;;;;5053072;28;20029;-72
2023/07/30 12:40:18;;;;;;;1.35;0.80;;;;;;;;;;5052925;28;20082;-73
2023/07/30 12:42:43;;;;;;;0.70;0.70;;;;;;;;;;5052873;28;20116;-73
2023/07/30 12:45:09;;;;;;;1.52;0.90;;;;;;;;;;5053189;28;20033;-73
2023/07/30 12:47:36;;;;;;;0.80;0.80;;;;;;;;;;5052872;28;20017;-72
2023/07/30 12:50:02;;;;;;;0.70;0.70;;;;;;;;;;5052793;28;20083;-73
2023/07/30 12:52:27;;;;;;;1.08;0.75;;;;;;;;;;5051564;28;20033;-71
2023/07/30 12:54:52;;;;;;;2.35;0.93;;;;;;;;;;5051850;28;20044;-71
2023/07/30 12:57:18;;;;;;;2.70;0.87;;;;;;;;;;5051471;28;20083;-72
2023/07/30 12:59:43;;;;;;;2.40;0.90;;;;;;;;;;5052636;28;20272;-72
2023/07/30 13:02:08;;;;;;;0.98;0.90;;;;;;;;;;5052639;28;20392;-73
2023/07/30 13:04:33;;;;;;;3.67;1.00;;;;;;;;;;5052709;28;20025;-72
2023/07/30 13:06:59;;;;;;;0.90;0.90;;;;;;;;;;5052668;28;20319;-71
2023/07/30 13:09:24;;;;;;;1.70;0.80;;;;;;;;;;5052601;28;20268;-73
2023/07/30 13:11:49;;;;;;;0.93;0.90;;;;;;;;;;5053267;28;20262;-73
2023/07/30 13:14:14;;;;;;;0.80;0.80;;;;;;;;;;5052694;28;20017;-72
2023/07/30 13:16:40;;;;;;;1.13;1.00;;;;;;;;;;5052605;28;20368;-73
2023/07/30 13:19:05;;;;;;;1.55;0.90;;;;;;;;;;5052433;28;20284;-71
2023/07/30 13:21:30;;;;;;;0.83;0.80;;;;;;;;;;5052634;28;20029;-73
2023/07/30 13:23:55;;;;;;;2.23;0.83;;;;;;;;;;5054982;28;20684;-73
2023/07/30 13:26:21;;;;;;;0.73;0.70;;;;;;;;;;5056641;28;20360;-73
2023/07/30 13:28:46;;;;;;;4.60;0.93;;;;;;;;;;5055285;28;20262;-73
2023/07/30 13:31:11;;;;;;;1.17;0.90;;;;;;;;;;5056435;28;20428;-73
2023/07/30 13:33:37;;;;;;;1.00;0.90;;;;;;;;;;5056494;28;20021;-73
2023/07/30 13:36:03;;;;;;;1.63;0.97;;;;;;;;;;5056431;28;20024;-73
2023/07/30 13:38:28;;;;;;;0.80;0.80;;;;;;;;;;5056100;28;20260;-72
2023/07/30 13:40:53;;;;;;;1.30;0.87;;;;;;;;;;5055059;28;20016;-72
2023/07/30 13:43:19;;;;;;;0.70;0.70;;;;;;;;;;5056194;28;20281;-71
2023/07/30 13:45:44;;;;;;;0.70;0.70;;;;;;;;;;5057210;28;20565;-73
2023/07/30 13:48:10;;;;;;;2.83;0.90;;;;;;;;;;5056812;28;20254;-73
2023/07/30 13:50:35;;;;;;;0.80;0.80;;;;;;;;;;5056367;28;20253;-74
2023/07/30 13:53:00;;;;;;;1.20;1.00;;;;;;;;;;5056336;28;20013;-74
2023/07/30 13:55:25;;;;;;;0.80;0.80;;;;;;;;;;5056657;28;20296;-73
2023/07/30 13:57:51;;;;;;;1.00;0.88;;;;;;;;;;5055932;28;20017;-73
2023/07/30 14:00:16;;;;;;;0.90;0.90;;;;;;;;;;5056072;28;20017;-73
2023/07/30 14:02:42;;;;;;;4.15;0.70;;;;;;;;;;5055785;28;20270;-71
2023/07/30 14:05:08;;;;;;;4.93;0.73;;;;;;;;;;5055895;28;20032;-73
2023/07/30 14:07:34;;;;;;;1.00;0.85;;;;;;;;;;5055732;28;20435;-72
2023/07/30 14:09:59;;;;;;;0.88;0.80;;;;;;;;;;5055914;28;20443;-72
2023/07/30 14:12:25;;;;;;;2.60;0.97;;;;;;;;;;5055698;28;20021;-73
2023/07/30 14:14:50;;;;;;;1.47;0.80;;;;;;;;;;5055756;28;20728;-72
2023/07/30 14:17:15;;;;;;;1.40;1.00;;;;;;;;;;5055625;28;20266;-72
2023/07/30 14:19:40;;;;;;;1.07;0.90;;;;;;;;;;5055410;28;20257;-72
2023/07/30 14:22:06;;;;;;;1.27;0.80;;;;;;;;;;5054532;28;20341;-72
2023/07/30 14:24:31;;;;;;;0.80;0.80;;;;;;;;;;5055355;28;20757;-71
2023/07/30 14:26:56;;;;;;;0.90;0.80;;;;;;;;;;5055555;28;20025;-73
2023/07/30 14:29:22;;;;;;;2.50;0.87;;;;;;;;;;5055296;28;20025;-72
2023/07/30 14:31:47;;;;;;;1.33;0.82;;;;;;;;;;5055313;28;20783;-72
2023/07/30 14:34:12;;;;;;;1.73;1.00;;;;;;;;;;5053317;28;20468;-73
2023/07/30 14:36:37;;;;;;;0.90;0.80;;;;;;;;;;5054615;28;20669;-72